sensor_id;sensor_type;location;lat;lon;timestamp;P1;durP1;ratioP1;P2;durP2;ratioP2
85835;SDS011;76292;47.678;19.066;2024-02-23T00:01:08;4.07;;;1.88;;
85835;SDS011;76292;47.678;19.066;2024-02-23T00:03:13;5.93;;;1.65;;
85835;SDS011;76292;47.678;19.066;2024-02-23T00:05:14;5.43;;;1.60;;
85835;SDS011;76292;47.678;19.066;2024-02-23T00:09:14;4.33;;;1.60;;
85835;SDS011;76292;47.678;19.066;2024-02-23T00:13:15;3.90;;;1.40;;
85835;SDS011;76292;47.678;19.066;2024-02-23T00:15:18;5.28;;;1.45;;
85835;SDS011;76292;47.678;19.066;2024-02-23T00:19:22;4.63;;;1.80;;
85835;SDS011;76292;47.678;19.066;2024-02-23T00:21:23;4.25;;;1.88;;
85835;SDS011;76292;47.678;19.066;2024-02-23T00:23:27;5.13;;;2.00;;
85835;SDS011;76292;47.678;19.066;2024-02-23T00:25:29;4.97;;;1.83;;
85835;SDS011;76292;47.678;19.066;2024-02-23T00:29:30;4.47;;;1.23;;
85835;SDS011;76292;47.678;19.066;2024-02-23T00:33:31;5.63;;;1.83;;
85835;SDS011;76292;47.678;19.066;2024-02-23T00:37:31;5.55;;;1.85;;
85835;SDS011;76292;47.678;19.066;2024-02-23T00:39:35;4.57;;;1.77;;
85835;SDS011;76292;47.678;19.066;2024-02-23T00:41:36;4.28;;;1.70;;
85835;SDS011;76292;47.678;19.066;2024-02-23T00:43:39;4.28;;;1.60;;
85835;SDS011;76292;47.678;19.066;2024-02-23T00:45:43;4.72;;;1.58;;
85835;SDS011;76292;47.678;19.066;2024-02-23T00:47:45;5.45;;;2.40;;
85835;SDS011;76292;47.678;19.066;2024-02-23T00:49:47;5.65;;;2.03;;
85835;SDS011;76292;47.678;19.066;2024-02-23T00:51:52;5.10;;;1.80;;
85835;SDS011;76292;47.678;19.066;2024-02-23T00:55:57;4.30;;;1.65;;
85835;SDS011;76292;47.678;19.066;2024-02-23T00:58:00;4.53;;;1.65;;
85835;SDS011;76292;47.678;19.066;2024-02-23T01:02:02;4.18;;;1.70;;
85835;SDS011;76292;47.678;19.066;2024-02-23T01:06:03;5.50;;;1.90;;
85835;SDS011;76292;47.678;19.066;2024-02-23T01:10:07;4.85;;;2.08;;
85835;SDS011;76292;47.678;19.066;2024-02-23T01:14:08;4.10;;;1.88;;
85835;SDS011;76292;47.678;19.066;2024-02-23T01:18:10;5.27;;;1.97;;
85835;SDS011;76292;47.678;19.066;2024-02-23T01:22:10;5.10;;;1.90;;
85835;SDS011;76292;47.678;19.066;2024-02-23T01:24:14;10.07;;;2.63;;
85835;SDS011;76292;47.678;19.066;2024-02-23T01:26:18;4.20;;;1.60;;
85835;SDS011;76292;47.678;19.066;2024-02-23T01:30:21;4.50;;;1.70;;
85835;SDS011;76292;47.678;19.066;2024-02-23T01:34:21;6.20;;;2.47;;
85835;SDS011;76292;47.678;19.066;2024-02-23T01:36:24;5.28;;;1.65;;
85835;SDS011;76292;47.678;19.066;2024-02-23T01:40:31;4.40;;;1.95;;
85835;SDS011;76292;47.678;19.066;2024-02-23T01:42:32;5.20;;;1.65;;
85835;SDS011;76292;47.678;19.066;2024-02-23T01:44:34;5.20;;;2.03;;
85835;SDS011;76292;47.678;19.066;2024-02-23T01:48:36;4.25;;;1.83;;
85835;SDS011;76292;47.678;19.066;2024-02-23T01:52:37;7.72;;;2.28;;
85835;SDS011;76292;47.678;19.066;2024-02-23T01:54:40;5.53;;;2.10;;
85835;SDS011;76292;47.678;19.066;2024-02-23T01:58:41;5.68;;;2.60;;
85835;SDS011;76292;47.678;19.066;2024-02-23T02:02:42;5.60;;;2.40;;
85835;SDS011;76292;47.678;19.066;2024-02-23T02:04:44;6.93;;;2.45;;
85835;SDS011;76292;47.678;19.066;2024-02-23T02:06:46;4.80;;;2.03;;
85835;SDS011;76292;47.678;19.066;2024-02-23T02:08:48;5.82;;;2.40;;
85835;SDS011;76292;47.678;19.066;2024-02-23T02:12:49;6.28;;;2.28;;
85835;SDS011;76292;47.678;19.066;2024-02-23T02:14:52;6.53;;;2.25;;
85835;SDS011;76292;47.678;19.066;2024-02-23T02:16:52;5.75;;;2.47;;
85835;SDS011;76292;47.678;19.066;2024-02-23T02:20:54;5.53;;;2.20;;
85835;SDS011;76292;47.678;19.066;2024-02-23T02:22:56;6.25;;;2.33;;
85835;SDS011;76292;47.678;19.066;2024-02-23T02:24:57;7.35;;;2.13;;
85835;SDS011;76292;47.678;19.066;2024-02-23T02:28:57;5.93;;;2.67;;
85835;SDS011;76292;47.678;19.066;2024-02-23T02:32:58;11.90;;;2.67;;
85835;SDS011;76292;47.678;19.066;2024-02-23T02:35:01;5.35;;;2.30;;
85835;SDS011;76292;47.678;19.066;2024-02-23T02:39:02;5.27;;;2.13;;
85835;SDS011;76292;47.678;19.066;2024-02-23T02:43:03;5.65;;;2.38;;
85835;SDS011;76292;47.678;19.066;2024-02-23T02:45:04;6.88;;;2.25;;
85835;SDS011;76292;47.678;19.066;2024-02-23T02:49:05;5.10;;;2.20;;
85835;SDS011;76292;47.678;19.066;2024-02-23T02:51:05;5.18;;;2.10;;
85835;SDS011;76292;47.678;19.066;2024-02-23T02:53:08;5.90;;;2.78;;
85835;SDS011;76292;47.678;19.066;2024-02-23T02:55:10;6.10;;;3.08;;
85835;SDS011;76292;47.678;19.066;2024-02-23T02:59:10;4.70;;;2.00;;
85835;SDS011;76292;47.678;19.066;2024-02-23T03:03:14;7.72;;;2.30;;
85835;SDS011;76292;47.678;19.066;2024-02-23T03:05:14;5.28;;;2.35;;
85835;SDS011;76292;47.678;19.066;2024-02-23T03:09:21;5.25;;;2.20;;
85835;SDS011;76292;47.678;19.066;2024-02-23T03:11:21;5.88;;;2.63;;
85835;SDS011;76292;47.678;19.066;2024-02-23T03:13:22;4.75;;;2.58;;
85835;SDS011;76292;47.678;19.066;2024-02-23T03:15:25;7.60;;;2.80;;
85835;SDS011;76292;47.678;19.066;2024-02-23T03:17:25;8.57;;;2.95;;
85835;SDS011;76292;47.678;19.066;2024-02-23T03:21:27;5.13;;;2.50;;
85835;SDS011;76292;47.678;19.066;2024-02-23T03:25:28;6.80;;;3.20;;
85835;SDS011;76292;47.678;19.066;2024-02-23T03:27:29;7.32;;;2.92;;
85835;SDS011;76292;47.678;19.066;2024-02-23T03:29:29;5.80;;;2.60;;
85835;SDS011;76292;47.678;19.066;2024-02-23T03:31:30;6.70;;;2.70;;
85835;SDS011;76292;47.678;19.066;2024-02-23T03:33:30;6.90;;;3.08;;
85835;SDS011;76292;47.678;19.066;2024-02-23T03:37:31;6.63;;;3.23;;
85835;SDS011;76292;47.678;19.066;2024-02-23T03:39:32;7.75;;;2.85;;
85835;SDS011;76292;47.678;19.066;2024-02-23T03:41:36;8.65;;;3.20;;
85835;SDS011;76292;47.678;19.066;2024-02-23T03:43:37;7.10;;;2.78;;
85835;SDS011;76292;47.678;19.066;2024-02-23T03:47:38;6.43;;;3.40;;
85835;SDS011;76292;47.678;19.066;2024-02-23T03:49:41;7.78;;;3.88;;
85835;SDS011;76292;47.678;19.066;2024-02-23T03:51:41;8.20;;;3.70;;
85835;SDS011;76292;47.678;19.066;2024-02-23T03:53:47;11.00;;;4.65;;
85835;SDS011;76292;47.678;19.066;2024-02-23T03:55:48;7.75;;;3.85;;
85835;SDS011;76292;47.678;19.066;2024-02-23T03:57:50;9.90;;;4.85;;
85835;SDS011;76292;47.678;19.066;2024-02-23T03:59:52;8.85;;;3.17;;
85835;SDS011;76292;47.678;19.066;2024-02-23T04:01:53;9.70;;;4.28;;
85835;SDS011;76292;47.678;19.066;2024-02-23T04:03:56;8.00;;;4.28;;
85835;SDS011;76292;47.678;19.066;2024-02-23T04:05:57;9.93;;;4.10;;
85835;SDS011;76292;47.678;19.066;2024-02-23T04:07:59;9.05;;;4.35;;
85835;SDS011;76292;47.678;19.066;2024-02-23T04:10:00;9.65;;;5.50;;
85835;SDS011;76292;47.678;19.066;2024-02-23T04:12:00;11.23;;;4.22;;
85835;SDS011;76292;47.678;19.066;2024-02-23T04:14:01;10.25;;;4.45;;
85835;SDS011;76292;47.678;19.066;2024-02-23T04:16:05;9.90;;;4.88;;
85835;SDS011;76292;47.678;19.066;2024-02-23T04:18:06;9.45;;;4.78;;
85835;SDS011;76292;47.678;19.066;2024-02-23T04:22:08;15.68;;;6.43;;
85835;SDS011;76292;47.678;19.066;2024-02-23T04:24:09;14.10;;;7.35;;
85835;SDS011;76292;47.678;19.066;2024-02-23T04:26:10;10.15;;;5.38;;
85835;SDS011;76292;47.678;19.066;2024-02-23T04:28:10;8.45;;;4.68;;
85835;SDS011;76292;47.678;19.066;2024-02-23T04:30:11;8.52;;;4.75;;
85835;SDS011;76292;47.678;19.066;2024-02-23T04:34:14;8.33;;;4.73;;
85835;SDS011;76292;47.678;19.066;2024-02-23T04:36:18;7.50;;;4.53;;
85835;SDS011;76292;47.678;19.066;2024-02-23T04:38:20;9.57;;;4.82;;
85835;SDS011;76292;47.678;19.066;2024-02-23T04:40:21;9.00;;;4.43;;
85835;SDS011;76292;47.678;19.066;2024-02-23T04:42:23;7.78;;;4.50;;
85835;SDS011;76292;47.678;19.066;2024-02-23T04:44:24;10.60;;;4.00;;
85835;SDS011;76292;47.678;19.066;2024-02-23T04:46:24;8.48;;;4.28;;
85835;SDS011;76292;47.678;19.066;2024-02-23T04:50:27;9.02;;;4.63;;
85835;SDS011;76292;47.678;19.066;2024-02-23T04:52:28;7.35;;;3.60;;
85835;SDS011;76292;47.678;19.066;2024-02-23T04:54:28;6.88;;;4.03;;
85835;SDS011;76292;47.678;19.066;2024-02-23T04:56:33;8.25;;;3.97;;
85835;SDS011;76292;47.678;19.066;2024-02-23T04:58:34;7.47;;;3.33;;
85835;SDS011;76292;47.678;19.066;2024-02-23T05:00:34;9.32;;;3.40;;
85835;SDS011;76292;47.678;19.066;2024-02-23T05:02:35;10.82;;;4.40;;
85835;SDS011;76292;47.678;19.066;2024-02-23T05:04:35;8.38;;;3.55;;
85835;SDS011;76292;47.678;19.066;2024-02-23T05:06:36;9.35;;;3.55;;
85835;SDS011;76292;47.678;19.066;2024-02-23T05:08:36;8.82;;;3.70;;
85835;SDS011;76292;47.678;19.066;2024-02-23T05:10:36;7.50;;;3.63;;
85835;SDS011;76292;47.678;19.066;2024-02-23T05:12:43;8.63;;;4.25;;
85835;SDS011;76292;47.678;19.066;2024-02-23T05:14:43;6.18;;;3.08;;
85835;SDS011;76292;47.678;19.066;2024-02-23T05:16:44;6.30;;;3.00;;
85835;SDS011;76292;47.678;19.066;2024-02-23T05:18:48;5.82;;;2.53;;
85835;SDS011;76292;47.678;19.066;2024-02-23T05:20:51;6.63;;;3.15;;
85835;SDS011;76292;47.678;19.066;2024-02-23T05:22:51;6.75;;;2.83;;
85835;SDS011;76292;47.678;19.066;2024-02-23T05:24:52;6.47;;;2.45;;
85835;SDS011;76292;47.678;19.066;2024-02-23T05:26:54;4.63;;;2.22;;
85835;SDS011;76292;47.678;19.066;2024-02-23T05:28:54;5.75;;;2.00;;
85835;SDS011;76292;47.678;19.066;2024-02-23T05:30:55;4.63;;;1.85;;
85835;SDS011;76292;47.678;19.066;2024-02-23T05:32:56;4.38;;;1.83;;
85835;SDS011;76292;47.678;19.066;2024-02-23T05:34:58;5.03;;;1.98;;
85835;SDS011;76292;47.678;19.066;2024-02-23T05:36:58;4.97;;;1.70;;
85835;SDS011;76292;47.678;19.066;2024-02-23T05:38:58;4.65;;;1.55;;
85835;SDS011;76292;47.678;19.066;2024-02-23T05:40:59;4.35;;;1.58;;
85835;SDS011;76292;47.678;19.066;2024-02-23T05:43:01;4.43;;;1.67;;
85835;SDS011;76292;47.678;19.066;2024-02-23T05:45:04;4.78;;;1.80;;
85835;SDS011;76292;47.678;19.066;2024-02-23T05:47:11;2.72;;;1.00;;
85835;SDS011;76292;47.678;19.066;2024-02-23T05:49:14;4.18;;;1.50;;
85835;SDS011;76292;47.678;19.066;2024-02-23T05:51:14;4.95;;;1.63;;
85835;SDS011;76292;47.678;19.066;2024-02-23T05:55:15;3.07;;;1.00;;
85835;SDS011;76292;47.678;19.066;2024-02-23T05:59:15;2.87;;;1.00;;
85835;SDS011;76292;47.678;19.066;2024-02-23T06:01:16;3.10;;;1.10;;
85835;SDS011;76292;47.678;19.066;2024-02-23T06:03:16;4.35;;;1.27;;
85835;SDS011;76292;47.678;19.066;2024-02-23T06:05:18;3.05;;;1.30;;
85835;SDS011;76292;47.678;19.066;2024-02-23T06:07:18;3.45;;;1.20;;
85835;SDS011;76292;47.678;19.066;2024-02-23T06:09:21;5.07;;;1.10;;
85835;SDS011;76292;47.678;19.066;2024-02-23T06:11:22;2.95;;;0.80;;
85835;SDS011;76292;47.678;19.066;2024-02-23T06:13:22;2.30;;;0.95;;
85835;SDS011;76292;47.678;19.066;2024-02-23T06:15:27;4.78;;;0.90;;
85835;SDS011;76292;47.678;19.066;2024-02-23T06:17:28;3.95;;;1.10;;
85835;SDS011;76292;47.678;19.066;2024-02-23T06:19:33;4.13;;;1.08;;
85835;SDS011;76292;47.678;19.066;2024-02-23T06:21:33;3.95;;;1.83;;
85835;SDS011;76292;47.678;19.066;2024-02-23T06:23:34;4.40;;;1.10;;
85835;SDS011;76292;47.678;19.066;2024-02-23T06:27:35;1.95;;;0.75;;
85835;SDS011;76292;47.678;19.066;2024-02-23T06:29:38;2.88;;;0.90;;
85835;SDS011;76292;47.678;19.066;2024-02-23T06:31:38;2.88;;;1.05;;
85835;SDS011;76292;47.678;19.066;2024-02-23T06:33:44;3.85;;;1.40;;
85835;SDS011;76292;47.678;19.066;2024-02-23T06:37:52;7.47;;;3.72;;
85835;SDS011;76292;47.678;19.066;2024-02-23T06:39:55;9.93;;;4.35;;
85835;SDS011;76292;47.678;19.066;2024-02-23T06:41:55;12.07;;;6.45;;
85835;SDS011;76292;47.678;19.066;2024-02-23T06:43:59;7.20;;;3.25;;
85835;SDS011;76292;47.678;19.066;2024-02-23T06:46:03;8.02;;;4.47;;
85835;SDS011;76292;47.678;19.066;2024-02-23T06:48:06;7.28;;;3.83;;
85835;SDS011;76292;47.678;19.066;2024-02-23T06:50:06;7.10;;;3.10;;
85835;SDS011;76292;47.678;19.066;2024-02-23T06:52:10;6.93;;;3.40;;
85835;SDS011;76292;47.678;19.066;2024-02-23T06:54:14;8.20;;;3.92;;
85835;SDS011;76292;47.678;19.066;2024-02-23T06:56:18;8.35;;;3.72;;
85835;SDS011;76292;47.678;19.066;2024-02-23T06:58:18;5.82;;;3.40;;
85835;SDS011;76292;47.678;19.066;2024-02-23T07:02:20;6.82;;;3.65;;
85835;SDS011;76292;47.678;19.066;2024-02-23T07:04:20;6.32;;;3.85;;
85835;SDS011;76292;47.678;19.066;2024-02-23T07:06:23;5.80;;;2.90;;
85835;SDS011;76292;47.678;19.066;2024-02-23T07:08:23;5.40;;;2.70;;
85835;SDS011;76292;47.678;19.066;2024-02-23T07:10:26;7.75;;;2.72;;
85835;SDS011;76292;47.678;19.066;2024-02-23T07:12:29;7.03;;;2.28;;
85835;SDS011;76292;47.678;19.066;2024-02-23T07:14:29;6.90;;;2.30;;
85835;SDS011;76292;47.678;19.066;2024-02-23T07:16:29;6.47;;;2.30;;
85835;SDS011;76292;47.678;19.066;2024-02-23T07:18:33;6.15;;;2.40;;
85835;SDS011;76292;47.678;19.066;2024-02-23T07:20:34;5.07;;;2.05;;
85835;SDS011;76292;47.678;19.066;2024-02-23T07:22:35;5.88;;;2.63;;
85835;SDS011;76292;47.678;19.066;2024-02-23T07:24:40;5.63;;;2.63;;
85835;SDS011;76292;47.678;19.066;2024-02-23T07:26:41;6.22;;;3.13;;
85835;SDS011;76292;47.678;19.066;2024-02-23T07:28:41;5.88;;;2.40;;
85835;SDS011;76292;47.678;19.066;2024-02-23T07:30:42;6.22;;;2.70;;
85835;SDS011;76292;47.678;19.066;2024-02-23T07:32:44;5.68;;;2.60;;
85835;SDS011;76292;47.678;19.066;2024-02-23T07:34:48;6.60;;;2.92;;
85835;SDS011;76292;47.678;19.066;2024-02-23T07:36:53;6.65;;;2.65;;
85835;SDS011;76292;47.678;19.066;2024-02-23T07:38:54;5.78;;;2.75;;
85835;SDS011;76292;47.678;19.066;2024-02-23T07:40:56;6.25;;;2.67;;
85835;SDS011;76292;47.678;19.066;2024-02-23T07:42:58;6.20;;;2.95;;
85835;SDS011;76292;47.678;19.066;2024-02-23T07:45:02;7.25;;;2.80;;
85835;SDS011;76292;47.678;19.066;2024-02-23T07:47:04;7.03;;;2.78;;
85835;SDS011;76292;47.678;19.066;2024-02-23T07:49:05;4.85;;;2.42;;
85835;SDS011;76292;47.678;19.066;2024-02-23T07:51:08;5.25;;;2.45;;
85835;SDS011;76292;47.678;19.066;2024-02-23T07:53:11;6.55;;;2.55;;
85835;SDS011;76292;47.678;19.066;2024-02-23T07:55:11;7.93;;;2.92;;
85835;SDS011;76292;47.678;19.066;2024-02-23T07:59:13;6.20;;;1.83;;
85835;SDS011;76292;47.678;19.066;2024-02-23T08:01:14;5.53;;;2.50;;
85835;SDS011;76292;47.678;19.066;2024-02-23T08:03:17;5.65;;;2.55;;
85835;SDS011;76292;47.678;19.066;2024-02-23T08:05:17;6.38;;;2.88;;
85835;SDS011;76292;47.678;19.066;2024-02-23T08:07:18;5.68;;;2.30;;
85835;SDS011;76292;47.678;19.066;2024-02-23T08:09:18;6.53;;;2.20;;
85835;SDS011;76292;47.678;19.066;2024-02-23T08:11:19;4.18;;;1.70;;
85835;SDS011;76292;47.678;19.066;2024-02-23T08:13:22;5.13;;;2.20;;
85835;SDS011;76292;47.678;19.066;2024-02-23T08:15:22;3.63;;;1.80;;
85835;SDS011;76292;47.678;19.066;2024-02-23T08:19:23;4.27;;;1.67;;
85835;SDS011;76292;47.678;19.066;2024-02-23T08:21:24;3.83;;;1.73;;
85835;SDS011;76292;47.678;19.066;2024-02-23T08:23:28;4.15;;;1.70;;
85835;SDS011;76292;47.678;19.066;2024-02-23T08:25:29;6.63;;;2.03;;
85835;SDS011;76292;47.678;19.066;2024-02-23T08:27:32;7.53;;;2.58;;
85835;SDS011;76292;47.678;19.066;2024-02-23T08:29:33;6.47;;;2.28;;
85835;SDS011;76292;47.678;19.066;2024-02-23T08:33:33;6.13;;;2.00;;
85835;SDS011;76292;47.678;19.066;2024-02-23T08:37:34;4.10;;;1.40;;
85835;SDS011;76292;47.678;19.066;2024-02-23T08:39:37;5.40;;;1.60;;
85835;SDS011;76292;47.678;19.066;2024-02-23T08:41:39;3.65;;;1.30;;
85835;SDS011;76292;47.678;19.066;2024-02-23T08:43:42;3.80;;;1.10;;
85835;SDS011;76292;47.678;19.066;2024-02-23T08:45:43;4.15;;;1.30;;
85835;SDS011;76292;47.678;19.066;2024-02-23T08:49:43;4.32;;;1.50;;
85835;SDS011;76292;47.678;19.066;2024-02-23T08:53:44;4.17;;;1.43;;
85835;SDS011;76292;47.678;19.066;2024-02-23T08:57:47;5.47;;;1.30;;
85835;SDS011;76292;47.678;19.066;2024-02-23T08:59:50;4.80;;;1.63;;
85835;SDS011;76292;47.678;19.066;2024-02-23T09:01:50;3.35;;;1.20;;
85835;SDS011;76292;47.678;19.066;2024-02-23T09:05:51;4.60;;;1.23;;
85835;SDS011;76292;47.678;19.066;2024-02-23T09:09:51;3.58;;;1.48;;
85835;SDS011;76292;47.678;19.066;2024-02-23T09:11:57;4.18;;;1.40;;
85835;SDS011;76292;47.678;19.066;2024-02-23T09:15:58;4.47;;;1.63;;
85835;SDS011;76292;47.678;19.066;2024-02-23T09:19:59;4.40;;;1.73;;
85835;SDS011;76292;47.678;19.066;2024-02-23T09:24:02;3.80;;;1.35;;
85835;SDS011;76292;47.678;19.066;2024-02-23T09:28:08;3.63;;;1.30;;
85835;SDS011;76292;47.678;19.066;2024-02-23T09:30:12;3.22;;;1.15;;
85835;SDS011;76292;47.678;19.066;2024-02-23T09:32:13;2.03;;;0.98;;
85835;SDS011;76292;47.678;19.066;2024-02-23T09:36:17;4.55;;;1.35;;
85835;SDS011;76292;47.678;19.066;2024-02-23T09:38:20;4.00;;;1.25;;
85835;SDS011;76292;47.678;19.066;2024-02-23T09:42:21;3.90;;;1.40;;
85835;SDS011;76292;47.678;19.066;2024-02-23T09:44:26;3.00;;;1.08;;
85835;SDS011;76292;47.678;19.066;2024-02-23T09:46:34;4.38;;;1.10;;
85835;SDS011;76292;47.678;19.066;2024-02-23T09:48:38;3.13;;;1.17;;
85835;SDS011;76292;47.678;19.066;2024-02-23T09:50:39;3.20;;;1.20;;
85835;SDS011;76292;47.678;19.066;2024-02-23T09:52:44;2.90;;;1.20;;
85835;SDS011;76292;47.678;19.066;2024-02-23T09:54:47;4.13;;;2.13;;
85835;SDS011;76292;47.678;19.066;2024-02-23T09:58:48;4.68;;;1.90;;
85835;SDS011;76292;47.678;19.066;2024-02-23T10:00:51;3.45;;;1.33;;
85835;SDS011;76292;47.678;19.066;2024-02-23T10:02:55;4.20;;;1.38;;
85835;SDS011;76292;47.678;19.066;2024-02-23T10:06:56;4.00;;;1.42;;
85835;SDS011;76292;47.678;19.066;2024-02-23T10:10:57;3.43;;;1.20;;
85835;SDS011;76292;47.678;19.066;2024-02-23T10:12:58;4.45;;;1.65;;
85835;SDS011;76292;47.678;19.066;2024-02-23T10:14:59;4.15;;;1.60;;
85835;SDS011;76292;47.678;19.066;2024-02-23T10:17:05;4.65;;;1.25;;
85835;SDS011;76292;47.678;19.066;2024-02-23T10:19:10;3.58;;;1.10;;
85835;SDS011;76292;47.678;19.066;2024-02-23T10:23:13;3.92;;;1.48;;
85835;SDS011;76292;47.678;19.066;2024-02-23T10:27:15;3.17;;;1.30;;
85835;SDS011;76292;47.678;19.066;2024-02-23T10:29:17;3.42;;;1.25;;
85835;SDS011;76292;47.678;19.066;2024-02-23T10:33:22;3.20;;;1.15;;
85835;SDS011;76292;47.678;19.066;2024-02-23T10:35:23;3.25;;;1.08;;
85835;SDS011;76292;47.678;19.066;2024-02-23T10:37:24;4.03;;;1.58;;
85835;SDS011;76292;47.678;19.066;2024-02-23T10:39:29;3.08;;;1.35;;
85835;SDS011;76292;47.678;19.066;2024-02-23T10:41:34;3.70;;;1.30;;
85835;SDS011;76292;47.678;19.066;2024-02-23T10:43:38;4.60;;;1.70;;
85835;SDS011;76292;47.678;19.066;2024-02-23T10:45:43;3.40;;;1.27;;
85835;SDS011;76292;47.678;19.066;2024-02-23T10:47:46;3.42;;;1.33;;
85835;SDS011;76292;47.678;19.066;2024-02-23T10:49:48;4.25;;;1.38;;
85835;SDS011;76292;47.678;19.066;2024-02-23T10:51:50;2.85;;;1.08;;
85835;SDS011;76292;47.678;19.066;2024-02-23T10:53:52;3.45;;;1.05;;
85835;SDS011;76292;47.678;19.066;2024-02-23T10:55:56;4.00;;;1.70;;
85835;SDS011;76292;47.678;19.066;2024-02-23T10:58:00;5.13;;;1.50;;
85835;SDS011;76292;47.678;19.066;2024-02-23T11:00:03;4.95;;;1.33;;
85835;SDS011;76292;47.678;19.066;2024-02-23T11:02:10;4.07;;;1.13;;
85835;SDS011;76292;47.678;19.066;2024-02-23T11:04:10;3.42;;;1.10;;
85835;SDS011;76292;47.678;19.066;2024-02-23T11:08:11;3.10;;;1.02;;
85835;SDS011;76292;47.678;19.066;2024-02-23T11:10:13;4.65;;;1.10;;
85835;SDS011;76292;47.678;19.066;2024-02-23T11:12:25;4.47;;;1.48;;
85835;SDS011;76292;47.678;19.066;2024-02-23T11:14:30;3.63;;;1.25;;
85835;SDS011;76292;47.678;19.066;2024-02-23T11:16:32;3.55;;;1.00;;
85835;SDS011;76292;47.678;19.066;2024-02-23T11:18:35;3.50;;;1.17;;
85835;SDS011;76292;47.678;19.066;2024-02-23T11:20:37;4.20;;;1.48;;
85835;SDS011;76292;47.678;19.066;2024-02-23T11:22:37;5.20;;;1.75;;
85835;SDS011;76292;47.678;19.066;2024-02-23T11:24:42;6.47;;;3.15;;
85835;SDS011;76292;47.678;19.066;2024-02-23T11:26:44;6.00;;;2.45;;
85835;SDS011;76292;47.678;19.066;2024-02-23T11:28:48;6.50;;;2.65;;
85835;SDS011;76292;47.678;19.066;2024-02-23T11:30:53;6.47;;;2.60;;
85835;SDS011;76292;47.678;19.066;2024-02-23T11:32:59;6.45;;;2.75;;
85835;SDS011;76292;47.678;19.066;2024-02-23T11:34:59;6.57;;;2.88;;
85835;SDS011;76292;47.678;19.066;2024-02-23T11:37:11;8.45;;;3.17;;
85835;SDS011;76292;47.678;19.066;2024-02-23T11:39:11;6.93;;;2.30;;
85835;SDS011;76292;47.678;19.066;2024-02-23T11:41:13;6.00;;;2.45;;
85835;SDS011;76292;47.678;19.066;2024-02-23T11:43:14;5.80;;;2.05;;
85835;SDS011;76292;47.678;19.066;2024-02-23T11:45:16;5.82;;;2.08;;
85835;SDS011;76292;47.678;19.066;2024-02-23T11:47:17;5.80;;;1.95;;
85835;SDS011;76292;47.678;19.066;2024-02-23T11:49:17;6.50;;;2.15;;
85835;SDS011;76292;47.678;19.066;2024-02-23T11:51:23;5.75;;;2.35;;
85835;SDS011;76292;47.678;19.066;2024-02-23T11:53:26;5.18;;;1.92;;
85835;SDS011;76292;47.678;19.066;2024-02-23T11:55:27;4.68;;;1.65;;
85835;SDS011;76292;47.678;19.066;2024-02-23T11:57:33;4.43;;;1.85;;
85835;SDS011;76292;47.678;19.066;2024-02-23T11:59:34;6.13;;;2.10;;
85835;SDS011;76292;47.678;19.066;2024-02-23T12:01:35;4.35;;;1.73;;
85835;SDS011;76292;47.678;19.066;2024-02-23T12:03:35;5.47;;;2.55;;
85835;SDS011;76292;47.678;19.066;2024-02-23T12:05:35;6.60;;;3.13;;
85835;SDS011;76292;47.678;19.066;2024-02-23T12:07:36;9.63;;;4.40;;
85835;SDS011;76292;47.678;19.066;2024-02-23T12:09:36;7.93;;;3.95;;
85835;SDS011;76292;47.678;19.066;2024-02-23T12:11:42;8.00;;;3.55;;
85835;SDS011;76292;47.678;19.066;2024-02-23T12:13:42;6.82;;;3.47;;
85835;SDS011;76292;47.678;19.066;2024-02-23T12:15:45;11.68;;;5.60;;
85835;SDS011;76292;47.678;19.066;2024-02-23T12:17:47;15.10;;;6.38;;
85835;SDS011;76292;47.678;19.066;2024-02-23T12:19:48;11.98;;;6.20;;
85835;SDS011;76292;47.678;19.066;2024-02-23T12:21:49;8.35;;;4.82;;
85835;SDS011;76292;47.678;19.066;2024-02-23T12:23:52;9.27;;;4.68;;
85835;SDS011;76292;47.678;19.066;2024-02-23T12:25:56;13.52;;;5.93;;
85835;SDS011;76292;47.678;19.066;2024-02-23T12:27:59;9.48;;;4.82;;
85835;SDS011;76292;47.678;19.066;2024-02-23T12:30:03;9.48;;;4.55;;
85835;SDS011;76292;47.678;19.066;2024-02-23T12:32:13;7.38;;;3.80;;
85835;SDS011;76292;47.678;19.066;2024-02-23T12:34:16;7.95;;;3.72;;
85835;SDS011;76292;47.678;19.066;2024-02-23T12:36:16;8.18;;;4.32;;
85835;SDS011;76292;47.678;19.066;2024-02-23T12:38:17;7.68;;;3.90;;
85835;SDS011;76292;47.678;19.066;2024-02-23T12:40:20;10.82;;;6.63;;
85835;SDS011;76292;47.678;19.066;2024-02-23T12:42:20;9.65;;;5.43;;
85835;SDS011;76292;47.678;19.066;2024-02-23T12:44:20;8.82;;;5.35;;
85835;SDS011;76292;47.678;19.066;2024-02-23T12:46:23;10.75;;;5.57;;
85835;SDS011;76292;47.678;19.066;2024-02-23T12:48:26;9.43;;;4.82;;
85835;SDS011;76292;47.678;19.066;2024-02-23T12:50:29;7.28;;;4.15;;
85835;SDS011;76292;47.678;19.066;2024-02-23T12:52:32;8.93;;;4.82;;
85835;SDS011;76292;47.678;19.066;2024-02-23T12:54:32;8.63;;;4.43;;
85835;SDS011;76292;47.678;19.066;2024-02-23T12:56:33;9.30;;;5.00;;
85835;SDS011;76292;47.678;19.066;2024-02-23T12:58:40;8.23;;;4.90;;
85835;SDS011;76292;47.678;19.066;2024-02-23T13:00:43;11.95;;;5.80;;
85835;SDS011;76292;47.678;19.066;2024-02-23T13:02:44;11.95;;;5.70;;
85835;SDS011;76292;47.678;19.066;2024-02-23T13:04:44;13.50;;;7.90;;
85835;SDS011;76292;47.678;19.066;2024-02-23T13:06:49;10.88;;;6.35;;
85835;SDS011;76292;47.678;19.066;2024-02-23T13:08:53;14.55;;;6.28;;
85835;SDS011;76292;47.678;19.066;2024-02-23T13:10:57;11.15;;;5.85;;
85835;SDS011;76292;47.678;19.066;2024-02-23T13:12:57;8.57;;;4.60;;
85835;SDS011;76292;47.678;19.066;2024-02-23T13:15:00;9.07;;;4.70;;
85835;SDS011;76292;47.678;19.066;2024-02-23T13:17:00;11.43;;;5.38;;
85835;SDS011;76292;47.678;19.066;2024-02-23T13:19:03;7.88;;;3.60;;
85835;SDS011;76292;47.678;19.066;2024-02-23T13:23:04;10.02;;;4.47;;
85835;SDS011;76292;47.678;19.066;2024-02-23T13:25:07;9.52;;;4.22;;
85835;SDS011;76292;47.678;19.066;2024-02-23T13:29:08;8.82;;;4.88;;
85835;SDS011;76292;47.678;19.066;2024-02-23T13:33:10;8.27;;;3.80;;
85835;SDS011;76292;47.678;19.066;2024-02-23T13:35:11;9.07;;;4.53;;
85835;SDS011;76292;47.678;19.066;2024-02-23T13:39:14;7.20;;;3.90;;
85835;SDS011;76292;47.678;19.066;2024-02-23T13:41:14;8.50;;;4.25;;
85835;SDS011;76292;47.678;19.066;2024-02-23T13:43:15;8.15;;;4.43;;
85835;SDS011;76292;47.678;19.066;2024-02-23T13:47:16;7.85;;;4.25;;
85835;SDS011;76292;47.678;19.066;2024-02-23T13:51:17;7.63;;;3.90;;
85835;SDS011;76292;47.678;19.066;2024-02-23T13:53:17;10.25;;;4.15;;
85835;SDS011;76292;47.678;19.066;2024-02-23T13:55:19;10.02;;;4.40;;
85835;SDS011;76292;47.678;19.066;2024-02-23T13:57:22;8.57;;;4.22;;
85835;SDS011;76292;47.678;19.066;2024-02-23T13:59:23;11.00;;;4.68;;
85835;SDS011;76292;47.678;19.066;2024-02-23T14:01:26;9.48;;;5.10;;
85835;SDS011;76292;47.678;19.066;2024-02-23T14:03:29;11.00;;;5.00;;
85835;SDS011;76292;47.678;19.066;2024-02-23T14:05:30;10.77;;;5.10;;
85835;SDS011;76292;47.678;19.066;2024-02-23T14:09:33;9.65;;;5.18;;
85835;SDS011;76292;47.678;19.066;2024-02-23T14:13:34;12.13;;;5.57;;
85835;SDS011;76292;47.678;19.066;2024-02-23T14:15:34;11.18;;;5.47;;
85835;SDS011;76292;47.678;19.066;2024-02-23T14:17:34;11.27;;;6.55;;
85835;SDS011;76292;47.678;19.066;2024-02-23T14:21:38;10.20;;;5.40;;
85835;SDS011;76292;47.678;19.066;2024-02-23T14:23:38;12.80;;;6.35;;
85835;SDS011;76292;47.678;19.066;2024-02-23T14:27:38;12.17;;;6.30;;
85835;SDS011;76292;47.678;19.066;2024-02-23T14:31:39;14.40;;;7.40;;
85835;SDS011;76292;47.678;19.066;2024-02-23T14:35:40;14.05;;;8.07;;